Time;durP1;ratioP1;P1;durP2;ratioP2;P2;SDS_P1;SDS_P2;PMS_P1;PMS_P2;Temp;Humidity;BMP_temperature;BMP_pressure;BME280_temperature;BME280_humidity;BME280_pressure;Samples;Min_cycle;Max_cycle;Signal;HPM_P1;HPM_P2
2021/05/18 00:00:29;;;;;;;8.83;6.45;;;;;;;13.15;79.99;99420.59;1673953;85;25886;-74
2021/05/18 00:02:58;;;;;;;8.13;6.65;;;;;;;13.16;80.05;99420.88;1642721;85;25790;-74
2021/05/18 00:05:27;;;;;;;8.95;6.75;;;;;;;13.16;80.08;99419.52;1653599;85;27605;-75
2021/05/18 00:07:59;;;;;;;8.05;7.10;;;;;;;13.18;80.11;99424.14;1622986;84;25703;-74
2021/05/18 00:13:17;;;;;;;9.58;7.45;;;;;;;13.20;80.26;99418.52;1672117;84;25998;-75
2021/05/18 00:15:46;;;;;;;8.80;7.60;;;;;;;13.20;80.23;99421.21;1625339;85;25843;-74
2021/05/18 00:18:14;;;;;;;9.63;7.90;;;;;;;13.21;80.27;99419.66;1636018;84;27929;-75
2021/05/18 00:20:42;;;;;;;11.95;7.10;;;;;;;13.22;80.22;99424.48;1689290;84;25716;-75
2021/05/18 00:23:12;;;;;;;8.90;6.67;;;;;;;13.23;80.25;99421.59;1646355;84;25656;-75
2021/05/18 00:25:41;;;;;;;7.95;7.03;;;;;;;13.23;80.36;99418.90;1631873;85;26370;-74
2021/05/18 00:28:08;;;;;;;11.73;7.15;;;;;;;13.21;80.50;99422.86;1636240;84;25882;-75
2021/05/18 00:30:35;;;;;;;7.70;6.92;;;;;;;13.15;80.54;99420.59;1660238;84;28201;-75
2021/05/18 00:33:07;;;;;;;7.60;6.45;;;;;;;13.12;80.54;99415.66;1635581;84;25776;-75
2021/05/18 00:35:34;;;;;;;8.15;7.17;;;;;;;13.11;80.87;99414.84;1673425;85;25669;-75
2021/05/18 00:38:03;;;;;;;9.30;6.92;;;;;;;13.07;81.06;99415.53;1684298;84;26299;-76
2021/05/18 00:40:30;;;;;;;8.53;7.30;;;;;;;13.04;80.95;99410.60;1686181;84;26022;-75
2021/05/18 00:42:57;;;;;;;9.60;6.95;;;;;;;13.06;80.91;99419.28;1638857;84;27558;-75
2021/05/18 00:45:35;;;;;;;7.83;7.03;;;;;;;13.06;80.89;99413.91;1634857;85;25717;-75
2021/05/18 00:48:05;;;;;;;7.75;7.05;;;;;;;13.04;80.91;99410.09;1638745;84;25863;-74
2021/05/18 00:50:34;;;;;;;9.43;7.17;;;;;;;13.05;80.93;99413.59;1687278;84;26377;-74
2021/05/18 00:53:03;;;;;;;7.60;6.80;;;;;;;13.04;81.07;99408.73;1665233;84;26499;-75
2021/05/18 00:55:43;;;;;;;7.47;6.72;;;;;;;12.99;81.18;99403.23;1637591;84;27600;-76
2021/05/18 01:01:18;;;;;;;9.40;6.65;;;;;;;12.95;81.29;99405.26;1695011;84;25736;-75
2021/05/18 01:03:50;;;;;;;11.45;6.78;;;;;;;12.95;81.33;99416.02;1656682;84;25863;-74
2021/05/18 01:06:29;;;;;;;9.48;6.53;;;;;;;12.95;81.40;99414.66;1639318;84;26525;-75
2021/05/18 01:09:08;;;;;;;8.68;6.95;;;;;;;12.94;81.42;99417.05;1648067;85;27152;-75
2021/05/18 01:11:33;;;;;;;7.62;6.17;;;;;;;12.92;81.37;99403.84;1685209;84;25813;-75
2021/05/18 01:14:07;;;;;;;7.80;5.87;;;;;;;12.91;81.54;99406.77;1599820;85;26164;-75
2021/05/18 01:16:37;;;;;;;8.35;6.08;;;;;;;12.89;81.60;99397.61;1659380;84;26637;-75
2021/05/18 01:19:06;;;;;;;8.45;5.85;;;;;;;12.88;81.85;99393.78;1610645;84;25833;-74
2021/05/18 01:21:35;;;;;;;8.17;6.63;;;;;;;12.80;82.37;99382.03;1672691;85;27471;-76
2021/05/18 01:24:05;;;;;;;7.95;6.28;;;;;;;12.74;82.56;99392.36;1656764;85;25718;-74
2021/05/18 01:26:34;;;;;;;6.92;5.97;;;;;;;12.71;82.85;99386.09;1645726;84;25718;-75
2021/05/18 01:29:05;;;;;;;8.98;6.55;;;;;;;12.68;83.09;99388.70;1659210;84;25803;-75
2021/05/18 01:31:35;;;;;;;8.78;5.92;;;;;;;12.68;82.61;99390.59;1658634;84;25692;-75
2021/05/18 01:34:04;;;;;;;7.40;6.30;;;;;;;12.67;82.88;99393.80;1661831;84;28084;-75
2021/05/18 01:36:34;;;;;;;;;;;;;;;12.66;82.67;99398.07;1642358;84;25879;-75
2021/05/18 01:39:26;;;;;;;6.80;6.10;;;;;;;12.67;82.61;99399.17;1692715;84;25779;-75
2021/05/18 01:44:23;;;;;;;8.58;5.65;;;;;;;12.70;82.47;99406.76;1657851;84;26089;-74
2021/05/18 01:46:52;;;;;;;5.33;4.60;;;;;;;12.71;82.41;99396.84;1623447;84;27465;-76
2021/05/18 01:49:20;;;;;;;5.72;5.12;;;;;;;12.73;82.31;99404.14;1680551;84;25771;-75
2021/05/18 01:51:52;;;;;;;5.83;5.03;;;;;;;12.74;82.33;99400.42;1689299;84;25803;-74
2021/05/18 01:54:24;;;;;;;;;;;;;;;12.73;82.11;99409.00;1662679;84;25762;-75
2021/05/18 01:57:15;;;;;;;6.20;4.67;;;;;;;12.74;82.14;99417.89;1679636;84;25644;-75
2021/05/18 01:59:25;;;;;;;7.25;4.70;;;;;;;12.72;82.09;99412.75;1686310;84;27546;-74
2021/05/18 02:01:57;;;;;;;4.60;3.73;;;;;;;12.71;82.07;99412.96;1660128;84;25792;-75
2021/05/18 02:04:40;;;;;;;6.62;3.98;;;;;;;12.64;82.34;99409.02;1658591;84;25699;-75
2021/05/18 02:07:13;;;;;;;7.20;4.28;;;;;;;12.61;82.34;99415.39;1692756;84;25927;-75
2021/05/18 02:09:41;;;;;;;10.40;6.08;;;;;;;12.58;82.19;99420.69;1601869;85;25707;-74
2021/05/18 02:12:11;;;;;;;5.75;4.15;;;;;;;12.57;82.18;99419.58;1657976;84;27359;-74
2021/05/18 02:14:41;;;;;;;5.85;4.28;;;;;;;12.58;82.28;99422.55;1660403;83;25968;-75
2021/05/18 02:25:31;;;;;;;4.62;3.83;;;;;;;12.49;82.61;99425.28;1685977;84;27427;-75
2021/05/18 02:28:04;;;;;;;3.95;3.47;;;;;;;12.46;82.42;99427.89;1678322;84;25785;-75
2021/05/18 02:30:33;;;;;;;4.42;4.03;;;;;;;12.46;82.46;99415.80;1637812;84;25831;-75
2021/05/18 02:33:02;;;;;;;5.00;4.12;;;;;;;12.47;82.37;99417.97;1638843;84;25912;-75
2021/05/18 02:35:37;;;;;;;5.80;3.72;;;;;;;12.44;82.40;99415.73;1686248;84;25647;-75
2021/05/18 02:38:05;;;;;;;6.35;4.60;;;;;;;12.39;82.79;99415.06;1660791;84;27473;-75
2021/05/18 02:40:35;;;;;;;6.08;3.98;;;;;;;12.38;82.51;99414.23;1642548;84;25874;-75
2021/05/18 02:43:02;;;;;;;6.40;3.75;;;;;;;12.40;82.58;99420.20;1638040;84;25980;-73
2021/05/18 02:46:01;;;;;;;5.90;3.85;;;;;;;12.39;82.65;99419.92;1657540;84;25771;-74
2021/05/18 02:51:04;;;;;;;6.62;4.53;;;;;;;12.35;82.75;99420.59;1639901;84;28241;-74
2021/05/18 02:53:49;;;;;;;5.78;4.10;;;;;;;12.34;82.78;99425.66;1658349;85;25618;-75
2021/05/18 03:01:25;;;;;;;5.65;4.28;;;;;;;12.43;82.92;99434.22;1663372;84;25901;-74
2021/05/18 03:03:53;;;;;;;4.72;4.30;;;;;;;12.42;82.72;99437.45;1619205;85;28232;-74
2021/05/18 03:06:20;;;;;;;7.30;4.90;;;;;;;12.41;83.08;99431.77;1679859;84;26441;-74
2021/05/18 03:08:48;;;;;;;8.20;4.40;;;;;;;12.40;82.97;99427.46;1667920;85;25626;-76
2021/05/18 03:11:16;;;;;;;4.47;3.75;;;;;;;12.41;82.97;99425.05;1670440;84;25809;-75
2021/05/18 03:13:43;;;;;;;8.28;4.70;;;;;;;12.40;83.18;99430.94;1645008;85;25807;-74
2021/05/18 03:16:10;;;;;;;5.25;4.28;;;;;;;12.38;83.73;99430.34;1669036;84;28131;-74
2021/05/18 03:18:37;;;;;;;6.58;5.00;;;;;;;12.36;83.91;99431.62;1667365;85;25613;-75
2021/05/18 03:21:05;;;;;;;6.67;4.37;;;;;;;12.33;83.62;99429.40;1618013;84;25714;-75
2021/05/18 03:23:32;;;;;;;5.37;4.53;;;;;;;12.34;83.88;99429.69;1645128;85;26511;-74
2021/05/18 03:25:59;;;;;;;5.92;5.15;;;;;;;12.32;84.13;99427.75;1693705;82;25679;-74
2021/05/18 03:28:26;;;;;;;7.00;4.45;;;;;;;12.32;83.78;99441.17;1684933;84;27400;-75
2021/05/18 03:31:13;;;;;;;5.05;4.58;;;;;;;12.34;83.84;99435.05;1610845;84;26400;-75
2021/05/18 03:36:10;;;;;;;6.03;4.55;;;;;;;12.35;84.03;99445.59;1679555;84;25871;-75
2021/05/18 03:38:41;;;;;;;5.70;5.10;;;;;;;12.36;84.19;99447.73;1685949;84;25816;-74
2021/05/18 03:41:23;;;;;;;5.70;5.05;;;;;;;12.37;84.16;99439.98;1621921;85;28385;-74
2021/05/18 03:52:14;;;;;;;6.42;5.72;;;;;;;12.43;84.15;99447.13;1613737;85;25806;-75
2021/05/18 04:10:55;;;;;;;6.65;5.92;;;;;;;12.50;84.34;99463.98;1667076;84;25667;-75
2021/05/18 04:16:49;;;;;;;6.33;5.70;;;;;;;12.52;84.53;99467.27;1622795;85;25719;-74
2021/05/18 04:18:53;;;;;;;10.63;6.75;;;;;;;12.53;84.51;99458.14;1687769;84;25852;-74
2021/05/18 04:21:18;;;;;;;6.70;5.80;;;;;;;12.54;84.45;99458.97;1656216;85;27498;-75
2021/05/18 04:26:29;;;;;;;7.78;6.37;;;;;;;12.60;84.66;99454.86;1623828;85;25860;-74
2021/05/18 04:48:25;;;;;;;9.20;7.00;;;;;;;12.72;84.32;99468.34;1660307;84;27582;-75
2021/05/18 04:53:47;;;;;;;8.63;7.05;;;;;;;12.79;84.15;99471.22;1674796;85;25757;-75
2021/05/18 05:01:16;;;;;;;9.98;9.00;;;;;;;12.90;83.84;99476.34;1685730;84;28082;-75
2021/05/18 05:06:34;;;;;;;10.53;7.72;;;;;;;13.01;83.70;99484.98;1666096;84;25626;-75
2021/05/18 05:14:24;;;;;;;11.50;8.15;;;;;;;13.06;83.03;99482.46;1672923;83;28075;-75
2021/05/18 05:16:52;;;;;;;10.85;8.73;;;;;;;13.07;83.35;99481.39;1624277;84;26526;-75
2021/05/18 05:19:21;;;;;;;11.68;8.20;;;;;;;13.06;83.29;99479.25;1618864;85;25323;-75
2021/05/18 05:21:48;;;;;;;9.40;7.87;;;;;;;13.10;83.32;99487.67;1616607;85;25855;-74
2021/05/18 05:24:15;;;;;;;9.15;8.25;;;;;;;13.14;83.21;99483.47;1695751;83;25754;-75
2021/05/18 05:26:42;;;;;;;10.38;7.65;;;;;;;13.17;83.04;99485.71;1642728;84;27906;-75
2021/05/18 05:29:09;;;;;;;9.68;7.85;;;;;;;13.21;83.16;99484.72;1636874;84;25683;-75
2021/05/18 05:31:38;;;;;;;8.28;7.45;;;;;;;13.23;83.00;99485.30;1656988;85;25650;-75
2021/05/18 05:34:05;;;;;;;8.75;7.85;;;;;;;13.23;82.81;99482.61;1688882;83;25915;-74
2021/05/18 05:36:32;;;;;;;7.87;7.17;;;;;;;13.23;82.95;99483.95;1629031;85;26478;-75
2021/05/18 05:39:09;;;;;;;10.70;7.30;;;;;;;13.26;82.98;99481.61;1685310;84;27402;-76
2021/05/18 05:41:32;;;;;;;10.45;7.15;;;;;;;13.32;82.98;99485.27;1660574;85;25705;-75
2021/05/18 05:43:59;;;;;;;10.00;7.92;;;;;;;13.38;82.82;99489.20;1676451;82;25720;-74
2021/05/18 05:46:26;;;;;;;9.05;8.03;;;;;;;13.40;82.54;99485.75;1638871;83;25840;-75
2021/05/18 05:48:53;;;;;;;9.58;8.15;;;;;;;13.41;82.29;99489.27;1659507;84;26589;-75
2021/05/18 05:51:26;;;;;;;10.63;9.13;;;;;;;13.41;82.16;99497.34;1672523;85;27396;-75
2021/05/18 05:53:58;;;;;;;9.50;8.03;;;;;;;13.43;82.48;99499.27;1648603;84;25894;-75
2021/05/18 05:56:25;;;;;;;9.83;8.85;;;;;;;13.48;82.71;99502.89;1653358;85;25786;-74
2021/05/18 05:58:52;;;;;;;9.35;7.90;;;;;;;13.50;82.32;99487.33;1642134;84;26380;-75
2021/05/18 06:01:19;;;;;;;10.40;7.92;;;;;;;13.55;82.34;99494.19;1646462;85;25719;-75
2021/05/18 06:03:46;;;;;;;9.05;7.67;;;;;;;13.57;82.11;99485.88;1671642;84;27774;-76
2021/05/18 06:06:14;;;;;;;8.73;7.87;;;;;;;13.62;82.16;99490.05;1624891;85;25774;-74
2021/05/18 06:08:44;;;;;;;8.23;7.30;;;;;;;13.63;81.78;99492.49;1699907;83;25626;-75
2021/05/18 06:11:17;;;;;;;10.30;8.58;;;;;;;13.65;81.47;99487.70;1672520;84;26002;-75
2021/05/18 06:49:02;;;;;;;12.23;8.65;;;;;;;14.23;78.98;99502.47;1649521;85;25731;-73
2021/05/18 06:51:29;;;;;;;9.50;8.40;;;;;;;14.25;79.22;99510.30;1635967;84;25718;-73
2021/05/18 06:53:56;;;;;;;9.40;8.10;;;;;;;14.28;79.11;99508.50;1655768;83;25966;-75
2021/05/18 06:56:31;;;;;;;10.35;7.87;;;;;;;14.31;79.06;99508.04;1632612;85;26814;-75
2021/05/18 07:01:28;;;;;;;8.53;7.75;;;;;;;14.35;78.69;99500.59;1646129;85;25862;-75
2021/05/18 07:03:58;;;;;;;7.55;6.83;;;;;;;14.42;79.18;99513.42;1683338;84;25784;-75
2021/05/18 07:06:43;;;;;;;7.92;6.60;;;;;;;14.49;78.72;99514.11;1674360;85;25648;-77
2021/05/18 07:09:05;;;;;;;9.73;8.05;;;;;;;14.52;78.21;99521.70;1661085;84;28118;-76
2021/05/18 07:11:32;;;;;;;9.98;8.33;;;;;;;14.52;77.69;99522.25;1644461;84;25727;-75
2021/05/18 07:13:59;;;;;;;8.50;7.60;;;;;;;14.55;78.36;99523.94;1675777;85;25609;-75
2021/05/18 07:16:26;;;;;;;8.45;6.97;;;;;;;14.59;78.08;99525.09;1644642;85;25725;-73
2021/05/18 07:18:53;;;;;;;7.87;7.05;;;;;;;14.62;78.15;99529.19;1647376;85;26107;-76
2021/05/18 07:21:21;;;;;;;10.38;7.67;;;;;;;14.63;77.98;99531.64;1652242;84;27480;-75
2021/05/18 07:23:49;;;;;;;9.55;7.42;;;;;;;14.64;77.78;99531.94;1695898;84;25793;-74
2021/05/18 07:26:16;;;;;;;9.40;8.00;;;;;;;14.61;77.35;99535.11;1676941;83;25711;-74
2021/05/18 07:28:43;;;;;;;8.40;7.50;;;;;;;14.58;77.40;99537.47;1638877;84;25816;-75
2021/05/18 07:31:10;;;;;;;9.78;7.42;;;;;;;14.56;77.65;99539.03;1657988;84;25465;-75
2021/05/18 07:33:37;;;;;;;8.18;7.15;;;;;;;14.57;77.69;99531.25;1685944;83;27551;-75
2021/05/18 07:36:09;;;;;;;9.08;7.75;;;;;;;14.56;77.34;99533.64;1634230;84;25811;-75
2021/05/18 07:38:42;;;;;;;8.13;6.95;;;;;;;14.54;77.36;99532.27;1661587;84;25741;-75
2021/05/18 07:41:10;;;;;;;8.50;7.58;;;;;;;14.55;77.05;99541.97;1643312;84;25842;-74
2021/05/18 07:43:37;;;;;;;8.48;7.67;;;;;;;14.56;77.27;99543.07;1687670;84;25732;-75
2021/05/18 07:46:05;;;;;;;7.15;6.47;;;;;;;14.59;77.57;99539.91;1635416;84;27400;-74
2021/05/18 07:48:46;;;;;;;8.13;6.78;;;;;;;14.64;77.44;99540.03;1644155;85;25590;-75
2021/05/18 07:59:39;;;;;;;9.33;7.17;;;;;;;14.66;76.93;99555.95;1642035;85;28157;-74
2021/05/18 08:07:18;;;;;;;7.62;6.25;;;;;;;14.64;76.11;99560.25;1601135;84;25811;-78
2021/05/18 08:09:50;;;;;;;8.98;5.97;;;;;;;14.61;76.35;99554.48;1620194;85;26286;-74
2021/05/18 08:12:14;;;;;;;7.33;6.00;;;;;;;14.64;76.28;99559.42;1651258;85;27425;-75
2021/05/18 08:14:47;;;;;;;80.17;18.40;;;;;;;14.68;76.58;99560.05;1689752;84;25781;-75
2021/05/18 08:17:29;;;;;;;7.92;7.08;;;;;;;14.73;76.47;99562.04;1626569;85;25790;-76
2021/05/18 10:17:59;;;;;;;10.70;9.30;;;;;;;14.68;77.34;99609.92;1625511;85;27292;-76
2021/05/18 10:36:10;;;;;;;9.38;8.10;;;;;;;14.85;78.35;99623.48;1642115;85;25804;-76
2021/05/18 10:38:43;;;;;;;8.88;8.08;;;;;;;14.89;78.23;99631.38;1626644;85;25941;-75
2021/05/18 10:41:17;;;;;;;9.23;8.43;;;;;;;14.85;78.24;99624.83;1664331;84;25789;-74
2021/05/18 10:43:57;;;;;;;9.63;8.50;;;;;;;14.80;78.04;99622.02;1671481;85;27511;-75
2021/05/18 10:46:32;;;;;;;9.13;8.33;;;;;;;14.75;78.20;99627.84;1665955;85;26374;-75
2021/05/18 10:48:56;;;;;;;10.78;9.68;;;;;;;14.68;78.25;99620.70;1633698;84;25334;-76
2021/05/18 10:51:35;;;;;;;10.97;9.97;;;;;;;14.69;78.33;99617.48;1601198;85;25728;-75
2021/05/18 10:54:26;;;;;;;10.63;9.50;;;;;;;14.69;78.44;99620.19;1684624;84;25597;-74
2021/05/18 10:57:03;;;;;;;10.55;9.53;;;;;;;14.65;78.44;99619.81;1680986;84;28073;-76
2021/05/18 10:59:53;;;;;;;11.40;10.32;;;;;;;14.64;78.53;99623.59;1656858;84;26277;-77
2021/05/18 11:02:31;;;;;;;9.97;8.97;;;;;;;14.64;78.37;99622.75;1658332;83;25765;-75
2021/05/18 11:05:12;;;;;;;10.48;9.40;;;;;;;14.65;78.30;99619.81;1681671;83;26389;-76
2021/05/18 11:07:44;;;;;;;;;;;;;;;14.63;78.14;99617.06;1686429;84;25715;-75
2021/05/18 11:10:20;;;;;;;10.65;9.55;;;;;;;14.62;78.55;99616.78;1662431;84;27477;-76
2021/05/18 11:12:55;;;;;;;10.60;9.50;;;;;;;14.58;78.37;99613.72;1669002;84;25680;-77
2021/05/18 11:15:21;;;;;;;10.82;9.45;;;;;;;14.61;78.17;99615.95;1686737;84;25710;-77
2021/05/18 11:17:51;;;;;;;9.75;8.88;;;;;;;14.64;78.33;99615.50;1641868;86;26371;-75
2021/05/18 11:20:26;;;;;;;10.28;9.28;;;;;;;14.64;78.32;99608.77;1604164;85;25664;-75
2021/05/18 11:23:26;;;;;;;8.68;7.90;;;;;;;14.67;78.02;99619.57;1640416;84;27489;-75
2021/05/18 11:26:01;;;;;;;10.50;9.15;;;;;;;14.69;78.07;99619.63;1662303;83;25621;-76
2021/05/18 11:28:39;;;;;;;11.43;8.95;;;;;;;14.72;78.21;99620.21;1658034;84;25656;-75
2021/05/18 11:31:19;;;;;;;15.30;8.08;;;;;;;14.76;78.03;99615.45;1672595;83;25869;-76
2021/05/18 11:33:49;;;;;;;8.60;7.78;;;;;;;14.77;77.91;99623.02;1660599;84;25611;-75
2021/05/18 11:36:29;;;;;;;;;;;;;;;14.75;77.92;99624.62;1688067;84;27989;-75
2021/05/18 11:39:11;;;;;;;7.83;7.12;;;;;;;14.76;77.52;99622.72;1685671;83;26363;-76
2021/05/18 11:41:40;;;;;;;11.28;8.00;;;;;;;14.74;77.81;99618.92;1658154;84;26351;-76
2021/05/18 11:44:10;;;;;;;8.18;7.22;;;;;;;14.77;77.70;99621.16;1642923;84;25756;-76
2021/05/18 11:46:48;;;;;;;8.08;6.65;;;;;;;14.81;77.75;99618.27;1670519;85;25716;-76
2021/05/18 11:49:18;;;;;;;6.87;6.20;;;;;;;14.85;77.34;99625.34;1636379;84;27342;-74
2021/05/18 11:51:52;;;;;;;7.72;7.03;;;;;;;14.87;77.55;99632.14;1651199;85;25814;-77
2021/05/18 11:54:27;;;;;;;7.95;6.95;;;;;;;14.91;77.22;99633.30;1676598;84;25265;-76
2021/05/18 11:56:57;;;;;;;7.22;6.62;;;;;;;14.92;77.20;99625.52;1685110;84;26420;-76
2021/05/18 11:59:25;;;;;;;11.73;7.40;;;;;;;14.98;77.24;99623.73;1639753;85;25660;-75
2021/05/18 12:01:58;;;;;;;7.55;6.47;;;;;;;15.00;76.96;99625.14;1654872;84;27464;-75
2021/05/18 12:04:27;;;;;;;18.57;7.08;;;;;;;15.02;76.84;99627.06;1659465;84;25651;-76
2021/05/18 12:06:59;;;;;;;9.88;7.00;;;;;;;15.07;76.66;99629.05;1681218;84;25655;-75
2021/05/18 12:09:29;;;;;;;6.45;5.35;;;;;;;15.11;76.64;99627.52;1629861;84;26492;-76
2021/05/18 12:11:59;;;;;;;7.33;6.63;;;;;;;15.17;76.23;99630.59;1638666;84;25710;-75
2021/05/18 12:14:28;;;;;;;10.43;6.90;;;;;;;15.16;76.44;99633.81;1686079;84;27347;-75
2021/05/18 12:16:56;;;;;;;8.38;7.58;;;;;;;15.16;75.82;99639.21;1690516;84;26282;-77
2021/05/18 12:19:23;;;;;;;8.18;7.22;;;;;;;15.18;75.94;99641.14;1608429;85;25435;-76
2021/05/18 12:21:56;;;;;;;7.53;6.83;;;;;;;15.17;75.50;99646.26;1662159;84;25805;-75
2021/05/18 12:24:27;;;;;;;8.15;6.67;;;;;;;15.14;76.04;99642.68;1647231;85;25757;-75
2021/05/18 12:27:05;;;;;;;8.48;7.08;;;;;;;15.16;75.76;99641.91;1683709;84;28084;-75
2021/05/18 12:29:44;;;;;;;12.25;8.08;;;;;;;15.20;75.87;99645.80;1609811;85;26440;-75
2021/05/18 12:32:23;;;;;;;9.30;8.00;;;;;;;15.22;75.50;99646.38;1679518;84;25649;-77
2021/05/18 12:35:00;;;;;;;7.80;6.62;;;;;;;15.20;75.23;99646.31;1649040;85;26410;-74
2021/05/18 12:37:43;;;;;;;8.00;7.25;;;;;;;15.18;75.41;99651.92;1687787;84;25623;-75
2021/05/18 12:40:20;;;;;;;7.62;6.92;;;;;;;15.14;75.19;99657.52;1645196;85;27363;-75
2021/05/18 12:42:48;;;;;;;10.48;6.87;;;;;;;15.08;75.24;99662.52;1675413;84;25662;-76
2021/05/18 12:45:21;;;;;;;7.30;6.50;;;;;;;15.05;75.41;99668.41;1665147;85;26152;-75
2021/05/18 12:47:52;;;;;;;8.80;7.90;;;;;;;15.02;75.25;99666.17;1666986;85;25768;-76
2021/05/18 12:50:21;;;;;;;8.43;7.58;;;;;;;14.97;75.41;99666.61;1647716;85;25719;-78
2021/05/18 12:52:52;;;;;;;14.83;8.15;;;;;;;14.93;75.49;99662.20;1628059;85;27536;-74
2021/05/18 12:55:26;;;;;;;8.15;7.35;;;;;;;14.91;75.61;99667.53;1674807;83;25949;-75
2021/05/18 12:58:04;;;;;;;9.98;7.50;;;;;;;14.89;75.85;99670.48;1697583;83;26295;-75
2021/05/18 13:00:41;;;;;;;7.72;6.37;;;;;;;14.93;76.18;99671.64;1656198;84;26426;-77
2021/05/18 13:03:20;;;;;;;10.28;6.95;;;;;;;14.97;76.00;99670.10;1651903;85;25889;-76
2021/05/18 13:05:54;;;;;;;7.90;6.47;;;;;;;14.99;75.88;99678.77;1662158;84;27535;-78
2021/05/18 13:08:37;;;;;;;11.22;6.70;;;;;;;15.00;75.83;99668.81;1671449;85;26357;-75
2021/05/18 13:13:56;;;;;;;9.23;6.58;;;;;;;15.06;75.77;99674.60;1680437;84;25858;-75
2021/05/18 13:16:35;;;;;;;7.08;6.47;;;;;;;15.12;75.96;99670.42;1686045;84;26331;-76
2021/05/18 13:19:10;;;;;;;6.50;5.90;;;;;;;15.11;75.59;99672.84;1610704;85;27298;-75
2021/05/18 13:21:52;;;;;;;9.48;6.03;;;;;;;15.12;75.53;99673.13;1648485;84;25760;-75
2021/05/18 13:27:01;;;;;;;6.00;5.40;;;;;;;15.08;75.20;99680.58;1686321;84;26381;-76
2021/05/18 13:29:28;;;;;;;6.15;5.28;;;;;;;15.08;75.20;99687.31;1672288;83;25885;-75
2021/05/18 13:31:56;;;;;;;6.22;4.85;;;;;;;15.04;75.26;99688.85;1652687;84;27391;-75
2021/05/18 13:34:23;;;;;;;6.17;5.20;;;;;;;15.05;75.32;99692.68;1654170;84;26364;-75
2021/05/18 13:36:50;;;;;;;7.85;5.90;;;;;;;15.06;75.33;99694.30;1686637;84;25666;-76
2021/05/18 13:39:24;;;;;;;5.03;4.42;;;;;;;15.08;75.26;99697.58;1637542;84;25969;-76
2021/05/18 13:41:51;;;;;;;5.35;4.78;;;;;;;15.05;74.96;99700.77;1665125;83;25830;-76
2021/05/18 13:44:18;;;;;;;6.10;5.20;;;;;;;14.99;75.23;99697.66;1621446;85;28083;-76
2021/05/18 13:46:48;;;;;;;6.70;4.17;;;;;;;15.00;75.25;99705.22;1672563;83;26467;-76
2021/05/18 13:49:16;;;;;;;5.60;4.95;;;;;;;14.98;74.84;99703.29;1665669;83;25659;-76
2021/05/18 13:51:44;;;;;;;4.28;3.90;;;;;;;14.93;75.36;99715.30;1674198;83;26154;-75
2021/05/18 13:54:11;;;;;;;5.35;3.87;;;;;;;14.93;74.64;99706.69;1643509;84;26004;-76
2021/05/18 13:56:38;;;;;;;4.33;3.27;;;;;;;14.91;74.95;99710.67;1673203;85;27384;-76
2021/05/18 13:59:05;;;;;;;3.77;3.20;;;;;;;14.95;74.99;99716.72;1636306;84;26043;-74
2021/05/18 14:01:32;;;;;;;5.87;3.12;;;;;;;14.95;74.74;99713.22;1624608;85;25617;-76
2021/05/18 14:03:59;;;;;;;3.42;3.12;;;;;;;14.96;74.40;99718.89;1680583;84;25818;-75
2021/05/18 14:06:27;;;;;;;3.90;2.87;;;;;;;14.95;74.42;99715.92;1684629;84;25741;-75
2021/05/18 14:08:54;;;;;;;3.58;2.87;;;;;;;14.93;74.01;99707.22;1645458;84;27537;-75
2021/05/18 14:11:23;;;;;;;5.00;2.87;;;;;;;14.92;74.43;99705.07;1683755;83;25689;-76
2021/05/18 14:13:53;;;;;;;3.60;2.85;;;;;;;14.93;74.04;99712.61;1619674;85;25744;-76
2021/05/18 14:16:22;;;;;;;2.58;2.35;;;;;;;14.88;73.40;99716.56;1696359;84;25757;-76
2021/05/18 14:18:53;;;;;;;3.33;2.42;;;;;;;14.79;73.42;99713.92;1646424;84;25730;-76
2021/05/18 14:21:23;;;;;;;3.37;2.30;;;;;;;14.76;74.04;99717.90;1653738;85;28351;-76
2021/05/18 14:26:30;;;;;;;3.08;1.60;;;;;;;14.82;72.88;99720.20;1662567;84;25643;-77
2021/05/18 14:28:57;;;;;;;3.90;1.80;;;;;;;14.75;72.57;99701.45;1685916;84;25768;-77
2021/05/18 14:31:25;;;;;;;1.95;1.70;;;;;;;14.75;73.06;99702.80;1631773;85;25991;-75
2021/05/18 14:33:53;;;;;;;3.00;1.45;;;;;;;14.77;72.83;99711.98;1647106;83;27438;-76
2021/05/18 14:36:21;;;;;;;2.75;1.72;;;;;;;14.75;72.83;99720.32;1647013;85;25690;-75
2021/05/18 14:38:48;;;;;;;2.50;1.62;;;;;;;14.75;72.76;99720.84;1644234;83;25275;-77
2021/05/18 14:44:02;;;;;;;3.02;2.12;;;;;;;14.67;72.77;99721.48;1655569;84;25750;-75
2021/05/18 14:46:37;;;;;;;1.90;1.70;;;;;;;14.61;72.46;99730.50;1691024;83;27498;-75
2021/05/18 14:54:42;;;;;;;3.25;2.42;;;;;;;14.45;73.17;99727.69;1672014;84;25716;-74
2021/05/18 14:56:55;;;;;;;3.95;2.00;;;;;;;14.44;73.73;99725.52;1683112;83;25829;-76
2021/05/18 14:59:22;;;;;;;2.52;1.77;;;;;;;14.42;73.41;99734.36;1644772;83;28125;-75
2021/05/18 15:01:49;;;;;;;3.35;2.17;;;;;;;14.36;73.62;99736.64;1653519;84;25805;-76
2021/05/18 15:04:17;;;;;;;2.62;2.42;;;;;;;14.34;74.01;99733.87;1655237;84;25639;-76
2021/05/18 15:06:44;;;;;;;3.90;2.40;;;;;;;14.33;73.93;99737.61;1684661;83;26420;-74
2021/05/18 15:09:11;;;;;;;4.65;1.85;;;;;;;14.36;74.00;99733.11;1681273;83;25863;-75
2021/05/18 15:11:38;;;;;;;5.22;2.50;;;;;;;14.36;74.35;99733.11;1650647;85;27555;-75
2021/05/18 15:14:06;;;;;;;4.05;2.80;;;;;;;14.41;74.54;99718.43;1660958;84;25814;-76
2021/05/18 15:16:33;;;;;;;2.75;2.52;;;;;;;14.44;74.40;99724.16;1685209;83;25665;-75
2021/05/18 15:19:07;;;;;;;3.33;2.90;;;;;;;14.44;74.25;99723.34;1661391;84;26473;-77
2021/05/18 15:21:33;;;;;;;2.90;2.60;;;;;;;14.44;74.50;99727.37;1631660;84;25809;-76
2021/05/18 15:24:00;;;;;;;3.70;2.33;;;;;;;14.48;74.60;99725.34;1659555;84;28217;-76
2021/05/18 15:26:27;;;;;;;3.02;2.58;;;;;;;14.49;74.49;99720.77;1670825;83;25591;-75
2021/05/18 15:28:54;;;;;;;3.12;2.50;;;;;;;14.47;74.49;99721.02;1653780;85;25654;-76
2021/05/18 15:31:21;;;;;;;2.77;2.40;;;;;;;14.48;74.67;99719.95;1607219;84;26347;-75
2021/05/18 15:33:48;;;;;;;3.70;2.37;;;;;;;14.53;74.71;99717.38;1659870;84;25698;-76
2021/05/18 15:36:16;;;;;;;6.22;2.50;;;;;;;14.57;74.72;99723.12;1643301;85;28159;-76
2021/05/18 15:38:45;;;;;;;2.72;2.20;;;;;;;14.58;74.60;99712.09;1629825;83;25904;-76
2021/05/18 15:41:13;;;;;;;2.98;2.50;;;;;;;14.56;74.68;99716.90;1637901;85;26402;-75
2021/05/18 15:43:40;;;;;;;4.42;2.98;;;;;;;14.50;74.26;99711.62;1645065;85;25783;-76
2021/05/18 15:46:07;;;;;;;5.37;2.77;;;;;;;14.47;74.50;99712.11;1672251;83;25614;-76
2021/05/18 15:48:34;;;;;;;5.22;3.00;;;;;;;14.49;74.52;99710.83;1660149;83;28069;-75
2021/05/18 15:51:02;;;;;;;2.52;2.33;;;;;;;14.49;74.67;99705.95;1672004;83;25666;-76
2021/05/18 15:53:30;;;;;;;3.00;2.58;;;;;;;14.48;74.85;99706.47;1640728;84;25709;-75
2021/05/18 15:55:57;;;;;;;4.58;2.75;;;;;;;14.53;74.75;99711.17;1672735;85;25785;-77
2021/05/18 15:58:26;;;;;;;5.45;2.35;;;;;;;14.54;74.89;99710.92;1633417;85;25737;-75
2021/05/18 16:00:54;;;;;;;3.80;2.58;;;;;;;14.55;74.35;99708.53;1646718;84;27482;-77
2021/05/18 16:03:21;;;;;;;4.20;2.30;;;;;;;14.55;74.61;99717.97;1646503;83;26406;-75
2021/05/18 16:05:49;;;;;;;3.12;2.77;;;;;;;14.56;74.47;99715.55;1682197;84;25725;-77
2021/05/18 16:11:04;;;;;;;5.03;2.40;;;;;;;14.55;74.48;99717.14;1654605;83;25543;-76
2021/05/18 16:13:32;;;;;;;3.37;2.85;;;;;;;14.56;74.58;99721.49;1679141;83;28250;-77
2021/05/18 16:16:12;;;;;;;2.92;2.50;;;;;;;14.54;74.49;99719.56;1701151;82;25690;-76
2021/05/18 16:18:40;;;;;;;2.87;2.57;;;;;;;14.55;74.40;99722.02;1634249;85;25787;-76
2021/05/18 16:21:11;;;;;;;2.87;2.40;;;;;;;14.51;74.26;99719.49;1640732;84;25900;-76
2021/05/18 16:23:40;;;;;;;3.55;2.40;;;;;;;14.50;74.48;99723.23;1652126;85;25764;-75
2021/05/18 16:26:08;;;;;;;3.90;2.60;;;;;;;14.50;74.33;99726.44;1677925;84;27598;-76
2021/05/18 16:28:36;;;;;;;4.28;2.70;;;;;;;14.48;74.32;99723.98;1652011;85;25796;-77
2021/05/18 16:31:07;;;;;;;3.37;2.60;;;;;;;14.43;74.28;99727.93;1677793;82;25972;-76
2021/05/18 16:33:37;;;;;;;4.10;2.45;;;;;;;14.42;74.42;99734.36;1674017;85;25945;-76
2021/05/18 16:36:06;;;;;;;3.80;2.60;;;;;;;14.40;74.33;99733.77;1672270;85;25878;-76
2021/05/18 16:38:34;;;;;;;3.77;2.15;;;;;;;14.37;74.29;99743.65;1661483;84;27382;-75
2021/05/18 16:41:02;;;;;;;3.08;2.33;;;;;;;14.34;74.38;99740.61;1622203;85;25720;-75
2021/05/18 16:43:29;;;;;;;3.90;2.55;;;;;;;14.32;74.32;99746.76;1640607;85;25748;-76
2021/05/18 16:45:56;;;;;;;4.50;3.02;;;;;;;14.24;74.26;99747.86;1623476;85;25576;-75